createdAt,value
2019-01-28T00:00:37.158Z,10.40
2019-01-28T00:01:37.132Z,8.20
2019-01-28T00:02:37.258Z,9.00
2019-01-28T00:03:37.166Z,8.60
2019-01-28T00:04:37.398Z,9.10
2019-01-28T00:05:37.187Z,9.60
2019-01-28T00:06:37.221Z,9.30
2019-01-28T00:07:37.232Z,8.50
2019-01-28T00:08:37.363Z,9.20
2019-01-28T00:09:37.423Z,9.20
2019-01-28T00:10:37.397Z,9.40
2019-01-28T00:11:37.299Z,9.20
2019-01-28T00:12:37.358Z,8.70
2019-01-28T00:13:37.444Z,9.20
2019-01-28T00:14:37.476Z,9.90
2019-01-28T00:15:37.356Z,9.40
2019-01-28T00:16:37.407Z,9.60
2019-01-28T00:17:37.409Z,9.10
2019-01-28T00:18:37.421Z,10.20
2019-01-28T00:19:37.553Z,9.40
2019-01-28T00:20:37.467Z,10.00
2019-01-28T00:21:37.481Z,10.20
2019-01-28T00:22:37.490Z,12.60
2019-01-28T00:23:37.527Z,9.60
2019-01-28T00:24:37.691Z,9.80
2019-01-28T00:25:37.555Z,9.50
2019-01-28T00:26:37.670Z,10.20
2019-01-28T00:27:37.565Z,8.60
2019-01-28T00:28:37.708Z,9.50
2019-01-28T00:29:37.817Z,10.80
2019-01-28T00:30:37.628Z,10.00
2019-01-28T00:31:37.650Z,10.80
2019-01-28T00:32:37.657Z,11.00
2019-01-28T00:33:37.683Z,13.00
2019-01-28T00:34:37.874Z,9.90
2019-01-28T00:35:37.708Z,11.90
2019-01-28T00:36:37.846Z,11.60
2019-01-28T00:37:37.724Z,11.40
2019-01-28T00:38:37.753Z,11.10
2019-01-28T00:39:37.935Z,12.00
2019-01-28T00:40:37.783Z,10.70
2019-01-28T00:41:37.922Z,10.80
2019-01-28T00:42:37.950Z,11.00
2019-01-28T00:43:37.966Z,12.40
2019-01-28T00:44:37.986Z,11.20
2019-01-28T00:45:37.881Z,13.10
2019-01-28T00:46:37.885Z,11.10
2019-01-28T00:47:38.028Z,11.10
2019-01-28T00:48:37.917Z,11.40
2019-01-28T00:49:38.130Z,10.80
2019-01-28T00:50:38.084Z,13.30
2019-01-28T00:51:37.993Z,14.40
2019-01-28T00:52:38.002Z,11.40
2019-01-28T00:53:38.126Z,11.30
2019-01-28T00:54:38.142Z,11.70
2019-01-28T00:55:38.096Z,11.70
2019-01-28T00:56:38.049Z,12.20
2019-01-28T00:57:38.106Z,12.50
2019-01-28T00:58:38.113Z,11.80
2019-01-28T00:59:38.277Z,12.20
2019-01-28T01:00:38.137Z,10.80
2019-01-28T01:01:38.997Z,11.60
2019-01-28T01:02:38.158Z,11.20
2019-01-28T01:03:38.171Z,10.80
2019-01-28T01:04:38.334Z,10.50
2019-01-28T01:05:38.212Z,11.30
2019-01-28T01:06:38.216Z,14.30
2019-01-28T01:07:38.233Z,10.70
2019-01-28T01:08:38.253Z,11.30
2019-01-28T01:09:38.370Z,11.10
2019-01-28T01:10:38.322Z,11.50
2019-01-28T01:11:38.317Z,10.90
2019-01-28T01:12:38.389Z,12.00
2019-01-28T01:13:38.341Z,11.90
2019-01-28T01:14:38.573Z,11.60
2019-01-28T01:15:38.492Z,11.70
2019-01-28T01:16:38.382Z,12.40
2019-01-28T01:17:38.530Z,12.80
2019-01-28T01:18:38.545Z,14.10
2019-01-28T01:19:38.489Z,14.70
2019-01-28T01:20:38.704Z,12.20
2019-01-28T01:21:38.482Z,12.30
2019-01-28T01:22:38.503Z,12.70
2019-01-28T01:23:38.630Z,13.00
2019-01-28T01:24:38.538Z,14.80
2019-01-28T01:25:38.764Z,12.40
2019-01-28T01:26:38.576Z,12.40
2019-01-28T01:27:38.584Z,12.70
2019-01-28T01:28:38.614Z,12.90
2019-01-28T01:29:38.731Z,11.80
2019-01-28T01:30:38.946Z,11.40
2019-01-28T01:31:38.653Z,11.70
2019-01-28T01:32:38.781Z,12.10
2019-01-28T01:33:38.697Z,12.10
2019-01-28T01:34:38.716Z,12.40
2019-01-28T01:35:38.885Z,11.20
2019-01-28T01:36:38.740Z,12.40
2019-01-28T01:37:38.739Z,13.10
2019-01-28T01:38:38.743Z,11.50
2019-01-28T01:39:38.781Z,12.40
2019-01-28T01:40:39.064Z,11.40
2019-01-28T01:41:38.823Z,11.40
2019-01-28T01:42:38.825Z,12.20
2019-01-28T01:43:38.841Z,11.50
2019-01-28T01:44:38.860Z,11.80
2019-01-28T01:45:38.974Z,12.70
2019-01-28T01:46:38.918Z,12.70
2019-01-28T01:47:39.027Z,12.30
2019-01-28T01:48:38.923Z,12.50
2019-01-28T01:49:39.059Z,13.60
2019-01-28T01:50:39.082Z,12.40
2019-01-28T01:51:39.098Z,11.90
2019-01-28T01:52:39.126Z,12.00
2019-01-28T01:53:39.031Z,12.40
2019-01-28T01:54:39.050Z,11.90
2019-01-28T01:55:39.315Z,13.80
2019-01-28T01:56:39.054Z,12.60
2019-01-28T01:57:39.067Z,12.60
2019-01-28T01:58:39.213Z,13.00
2019-01-28T01:59:39.102Z,12.30
2019-01-28T02:00:39.292Z,11.60
2019-01-28T02:01:39.260Z,12.30
2019-01-28T02:02:39.283Z,12.10
2019-01-28T02:03:39.305Z,11.80
2019-01-28T02:04:39.198Z,12.10
2019-01-28T02:05:39.311Z,13.00
2019-01-28T02:06:39.354Z,11.80
2019-01-28T02:07:39.256Z,11.60
2019-01-28T02:08:39.384Z,10.70
2019-01-28T02:09:39.311Z,13.00
2019-01-28T02:10:39.411Z,12.50
2019-01-28T02:11:39.528Z,11.60
2019-01-28T02:12:39.404Z,10.90
2019-01-28T02:13:39.466Z,11.10
2019-01-28T02:14:39.487Z,11.40
2019-01-28T02:15:39.501Z,11.70
2019-01-28T02:16:39.518Z,11.80
2019-01-28T02:17:39.455Z,11.90
2019-01-28T02:18:39.546Z,11.90
2019-01-28T02:19:39.434Z,11.50
2019-01-28T02:20:39.581Z,11.90
2019-01-28T02:21:39.699Z,12.80
2019-01-28T02:22:39.504Z,11.50
2019-01-28T02:23:39.635Z,11.40
2019-01-28T02:24:39.537Z,13.30
2019-01-28T02:25:39.546Z,12.10
2019-01-28T02:26:39.735Z,11.90
2019-01-28T02:27:39.600Z,11.20
2019-01-28T02:28:39.591Z,13.50
2019-01-28T02:29:39.722Z,11.80
2019-01-28T02:30:39.743Z,13.40
2019-01-28T02:31:39.777Z,16.10
2019-01-28T02:32:39.662Z,13.50
2019-01-28T02:33:39.801Z,14.00
2019-01-28T02:34:39.700Z,14.40
2019-01-28T02:35:39.695Z,14.10
2019-01-28T02:36:39.778Z,15.30
2019-01-28T02:37:39.754Z,16.30
2019-01-28T02:38:39.753Z,14.70
2019-01-28T02:39:39.790Z,15.50
2019-01-28T02:40:39.794Z,17.40
2019-01-28T02:41:40.028Z,18.00
2019-01-28T02:42:39.839Z,18.90
2019-01-28T02:43:39.835Z,19.50
2019-01-28T02:44:39.981Z,19.70
2019-01-28T02:45:39.898Z,18.50
2019-01-28T02:46:39.943Z,19.40
2019-01-28T02:47:39.938Z,20.30
2019-01-28T02:48:39.938Z,20.30
2019-01-28T02:49:39.979Z,20.80
2019-01-28T02:50:39.973Z,21.70
2019-01-28T02:51:40.110Z,21.30
2019-01-28T02:52:39.986Z,20.90
2019-01-28T02:53:40.016Z,21.50
2019-01-28T02:54:40.012Z,23.90
2019-01-28T02:55:40.147Z,21.00
2019-01-28T02:56:40.225Z,22.90
2019-01-28T02:57:40.070Z,22.00
2019-01-28T02:58:40.101Z,21.20
2019-01-28T02:59:40.101Z,21.80
2019-01-28T03:00:40.233Z,20.90
2019-01-28T03:01:40.402Z,24.60
2019-01-28T03:02:40.172Z,24.80
2019-01-28T03:03:40.283Z,27.20
2019-01-28T03:04:40.178Z,27.10
2019-01-28T03:05:40.310Z,29.90
2019-01-28T03:06:40.324Z,31.00
2019-01-28T03:07:40.228Z,30.40
2019-01-28T03:08:40.228Z,28.60
2019-01-28T03:09:40.269Z,27.30
2019-01-28T03:10:40.394Z,27.90
2019-01-28T03:11:40.437Z,28.20
2019-01-28T03:12:40.303Z,27.70
2019-01-28T03:13:40.339Z,27.90
2019-01-28T03:14:40.351Z,26.90
2019-01-28T03:15:40.472Z,27.40
2019-01-28T03:16:40.405Z,27.70
2019-01-28T03:17:40.557Z,28.00
2019-01-28T03:18:40.398Z,29.30
2019-01-28T03:19:40.426Z,29.90
2019-01-28T03:20:40.466Z,27.20
2019-01-28T03:21:40.570Z,30.50
2019-01-28T03:22:40.639Z,30.30
2019-01-28T03:23:40.484Z,29.30
2019-01-28T03:24:40.627Z,30.40
2019-01-28T03:25:40.523Z,30.30
2019-01-28T03:26:40.545Z,27.30
2019-01-28T03:27:40.605Z,27.70
2019-01-28T03:28:40.689Z,33.20
2019-01-28T03:29:40.704Z,33.30
2019-01-28T03:30:40.626Z,33.90
2019-01-28T03:31:40.626Z,33.60
2019-01-28T03:32:40.810Z,31.60
2019-01-28T03:33:40.656Z,33.20
2019-01-28T03:34:40.780Z,30.60
2019-01-28T03:35:40.805Z,30.40
2019-01-28T03:36:40.706Z,30.70
2019-01-28T03:37:40.757Z,32.30
2019-01-28T03:38:40.744Z,34.40
2019-01-28T03:39:40.804Z,34.50
2019-01-28T03:40:40.884Z,32.70
2019-01-28T03:41:40.890Z,34.40
2019-01-28T03:42:40.831Z,38.10
2019-01-28T03:43:41.019Z,38.70
2019-01-28T03:44:40.901Z,36.70
2019-01-28T03:45:40.959Z,37.90
2019-01-28T03:46:40.902Z,40.10
2019-01-28T03:47:40.992Z,42.80
2019-01-28T03:48:41.038Z,44.80
2019-01-28T03:49:40.914Z,41.70
2019-01-28T03:50:41.049Z,42.20
2019-01-28T03:51:41.060Z,44.70
2019-01-28T03:52:41.067Z,39.50
2019-01-28T03:53:41.186Z,42.50
2019-01-28T03:54:41.004Z,41.70
2019-01-28T03:55:41.010Z,41.60
2019-01-28T03:56:41.037Z,44.60
2019-01-28T03:57:41.033Z,43.70
2019-01-28T03:58:41.263Z,40.60
2019-01-28T03:59:41.111Z,43.10
2019-01-28T04:00:41.140Z,41.60
2019-01-28T04:01:41.214Z,46.70
2019-01-28T04:02:41.222Z,47.20
2019-01-28T04:03:41.227Z,44.20
2019-01-28T04:04:41.270Z,44.80
2019-01-28T04:05:41.152Z,44.10
2019-01-28T04:06:41.178Z,44.40
2019-01-28T04:07:41.196Z,46.90
2019-01-28T04:08:41.289Z,46.40
2019-01-28T04:09:41.217Z,49.80
2019-01-28T04:10:41.238Z,53.90
2019-01-28T04:11:41.371Z,57.00
2019-01-28T04:12:41.388Z,50.40
2019-01-28T04:13:41.461Z,47.10
2019-01-28T04:14:41.418Z,48.30
2019-01-28T04:15:41.319Z,46.80
2019-01-28T04:16:41.329Z,46.90
2019-01-28T04:17:41.464Z,47.60
2019-01-28T04:18:41.587Z,46.40
2019-01-28T04:19:41.392Z,47.60
2019-01-28T04:20:41.516Z,48.10
2019-01-28T04:21:41.434Z,47.10
2019-01-28T04:22:41.437Z,45.70
2019-01-28T04:23:41.710Z,46.60
2019-01-28T04:24:41.481Z,46.90
2019-01-28T04:25:41.593Z,43.60
2019-01-28T04:26:41.619Z,40.40
2019-01-28T04:27:41.633Z,40.90
2019-01-28T04:28:41.623Z,44.50
2019-01-28T04:29:41.541Z,43.20
2019-01-28T04:30:41.560Z,41.80
2019-01-28T04:31:41.683Z,42.40
2019-01-28T04:32:41.702Z,44.40
2019-01-28T04:33:41.819Z,46.20
2019-01-28T04:34:41.733Z,42.60
2019-01-28T04:35:41.641Z,45.00
2019-01-28T04:36:41.705Z,43.10
2019-01-28T04:37:41.724Z,41.90
2019-01-28T04:38:41.786Z,41.80
2019-01-28T04:39:41.698Z,42.00
2019-01-28T04:40:41.827Z,44.50
2019-01-28T04:41:41.724Z,44.50
2019-01-28T04:42:41.736Z,43.20
2019-01-28T04:43:41.926Z,40.10
2019-01-28T04:44:41.785Z,37.70
2019-01-28T04:45:41.801Z,38.60
2019-01-28T04:46:41.809Z,37.40
2019-01-28T04:47:41.855Z,37.40
2019-01-28T04:48:42.105Z,38.30
2019-01-28T04:49:41.872Z,39.70
2019-01-28T04:50:41.996Z,39.10
2019-01-28T04:51:41.895Z,34.70
2019-01-28T04:52:41.897Z,35.70
2019-01-28T04:53:42.063Z,38.20
2019-01-28T04:54:42.046Z,37.60
2019-01-28T04:55:42.065Z,40.40
2019-01-28T04:56:42.079Z,43.30
2019-01-28T04:57:42.097Z,40.80
2019-01-28T04:58:42.081Z,42.30
2019-01-28T04:59:42.025Z,40.90
2019-01-28T05:00:42.039Z,41.00
2019-01-28T05:01:42.048Z,37.20
2019-01-28T05:02:42.077Z,36.90
2019-01-28T05:03:42.240Z,39.50
2019-01-28T05:04:42.110Z,41.20
2019-01-28T05:05:42.219Z,41.80
2019-01-28T05:06:42.311Z,45.80
2019-01-28T05:07:42.144Z,42.90
2019-01-28T05:08:42.280Z,44.70
2019-01-28T05:09:42.170Z,42.00
2019-01-28T05:10:42.201Z,39.90
2019-01-28T05:11:42.293Z,42.30
2019-01-28T05:12:42.203Z,42.00
2019-01-28T05:13:42.217Z,42.20
2019-01-28T05:14:42.239Z,43.10
2019-01-28T05:15:42.386Z,41.80
2019-01-28T05:16:42.399Z,43.50
2019-01-28T05:17:42.305Z,46.10
2019-01-28T05:18:42.430Z,54.30
2019-01-28T05:19:42.349Z,52.60
2019-01-28T05:20:42.350Z,62.30
2019-01-28T05:21:42.519Z,60.30
2019-01-28T05:22:42.490Z,59.60
2019-01-28T05:23:42.512Z,66.50
2019-01-28T05:24:42.412Z,67.60
2019-01-28T05:25:42.421Z,65.50
2019-01-28T05:26:42.476Z,55.10
2019-01-28T05:27:42.449Z,66.30
2019-01-28T05:28:42.461Z,89.90
2019-01-28T05:29:42.472Z,106.80
2019-01-28T05:30:42.526Z,106.40
2019-01-28T05:31:42.560Z,118.90
2019-01-28T05:32:42.566Z,108.60
2019-01-28T05:33:42.661Z,122.60
2019-01-28T05:34:42.680Z,143.00
2019-01-28T05:35:42.687Z,137.00
2019-01-28T05:36:42.683Z,144.80
2019-01-28T05:37:42.721Z,118.60
2019-01-28T05:38:42.744Z,120.30
2019-01-28T05:39:42.637Z,136.70
2019-01-28T05:40:42.766Z,124.70
2019-01-28T05:41:42.818Z,127.10
2019-01-28T05:42:42.801Z,130.70
2019-01-28T05:43:42.699Z,138.20
2019-01-28T05:44:42.710Z,137.90
2019-01-28T05:45:42.848Z,96.10
2019-01-28T05:46:42.883Z,102.60
2019-01-28T05:47:42.885Z,100.40
2019-01-28T05:48:42.789Z,82.40
2019-01-28T05:49:42.785Z,74.70
2019-01-28T05:50:42.801Z,71.60
2019-01-28T05:51:42.924Z,65.60
2019-01-28T05:52:42.952Z,58.30
2019-01-28T05:53:42.835Z,55.90
2019-01-28T05:54:42.869Z,62.20
2019-01-28T05:55:42.940Z,56.00
2019-01-28T05:56:43.025Z,49.60
2019-01-28T05:57:42.912Z,46.90
2019-01-28T05:58:43.050Z,50.10
2019-01-28T05:59:42.954Z,45.90
2019-01-28T06:00:42.972Z,45.00
2019-01-28T06:01:43.196Z,43.00
2019-01-28T06:02:43.029Z,43.90
2019-01-28T06:03:43.133Z,41.00
2019-01-28T06:04:43.022Z,38.50
2019-01-28T06:05:43.034Z,43.30
2019-01-28T06:06:43.159Z,37.60
2019-01-28T06:07:43.195Z,37.60
2019-01-28T06:08:43.095Z,42.30
2019-01-28T06:09:43.119Z,39.60
2019-01-28T06:10:43.113Z,40.90
2019-01-28T06:11:43.204Z,42.50
2019-01-28T06:12:43.173Z,41.70
2019-01-28T06:13:43.278Z,43.40
2019-01-28T06:14:43.173Z,40.30
2019-01-28T06:15:43.191Z,46.00
2019-01-28T06:16:43.294Z,41.60
2019-01-28T06:17:43.214Z,40.40
2019-01-28T06:18:43.359Z,41.00
2019-01-28T06:19:43.268Z,39.10
2019-01-28T06:20:43.290Z,37.90
2019-01-28T06:21:43.410Z,39.60
2019-01-28T06:22:43.429Z,38.00
2019-01-28T06:23:43.440Z,35.90
2019-01-28T06:24:43.396Z,35.50
2019-01-28T06:25:43.333Z,35.20
2019-01-28T06:26:43.486Z,39.80
2019-01-28T06:27:43.509Z,39.40
2019-01-28T06:28:43.392Z,39.50
2019-01-28T06:29:43.424Z,35.80
2019-01-28T06:30:43.431Z,38.80
2019-01-28T06:31:43.564Z,39.70
2019-01-28T06:32:43.461Z,38.00
2019-01-28T06:33:43.588Z,39.90
2019-01-28T06:34:43.513Z,40.70
2019-01-28T06:35:43.500Z,43.00
2019-01-28T06:36:43.791Z,41.30
2019-01-28T06:37:43.546Z,41.10
2019-01-28T06:38:43.574Z,41.40
2019-01-28T06:39:43.569Z,42.00
2019-01-28T06:40:43.582Z,41.60
2019-01-28T06:41:43.772Z,41.90
2019-01-28T06:42:43.611Z,42.60
2019-01-28T06:43:43.743Z,42.70
2019-01-28T06:44:43.760Z,45.40
2019-01-28T06:45:43.665Z,41.80
2019-01-28T06:46:43.840Z,42.20
2019-01-28T06:47:46.920Z,44.40
2019-01-28T06:48:43.924Z,44.20
2019-01-28T06:49:43.733Z,44.80
2019-01-28T06:50:43.853Z,45.10
2019-01-28T06:51:43.775Z,42.70
2019-01-28T06:52:43.822Z,38.60
2019-01-28T06:53:43.852Z,39.20
2019-01-28T06:54:43.816Z,39.60
2019-01-28T06:55:43.931Z,36.40
2019-01-28T06:56:43.950Z,37.90
2019-01-28T06:57:43.853Z,38.20
2019-01-28T06:58:44.030Z,37.60
2019-01-28T06:59:43.995Z,39.30
2019-01-28T07:00:44.011Z,41.50
2019-01-28T07:01:44.073Z,39.40
2019-01-28T07:02:44.035Z,39.50
2019-01-28T07:03:43.986Z,36.40
2019-01-28T07:04:43.944Z,40.20
2019-01-28T07:05:44.093Z,35.10
2019-01-28T07:06:44.043Z,39.00
2019-01-28T07:07:43.993Z,36.60
2019-01-28T07:08:44.017Z,36.70
2019-01-28T07:09:44.145Z,37.80
2019-01-28T07:10:44.029Z,38.30
2019-01-28T07:11:44.107Z,36.60
2019-01-28T07:12:44.193Z,38.90
2019-01-28T07:13:44.246Z,40.10
2019-01-28T07:14:44.233Z,38.70
2019-01-28T07:15:44.127Z,39.30
2019-01-28T07:16:44.257Z,40.30
2019-01-28T07:17:44.151Z,40.50
2019-01-28T07:18:44.227Z,41.40
2019-01-28T07:19:44.212Z,38.10
2019-01-28T07:20:44.209Z,39.50
2019-01-28T07:21:44.196Z,41.10
2019-01-28T07:22:44.268Z,36.70
2019-01-28T07:23:44.320Z,37.40
2019-01-28T07:24:44.442Z,38.50
2019-01-28T07:25:44.335Z,31.40
2019-01-28T07:26:44.287Z,35.40
2019-01-28T07:27:44.422Z,40.00
2019-01-28T07:28:44.442Z,42.00
2019-01-28T07:29:44.454Z,38.30
2019-01-28T07:30:44.521Z,38.40
2019-01-28T07:31:44.386Z,37.70
2019-01-28T07:32:44.446Z,35.90
2019-01-28T07:33:44.458Z,33.40
2019-01-28T07:34:44.425Z,32.40
2019-01-28T07:35:44.466Z,34.90
2019-01-28T07:36:44.567Z,33.60
2019-01-28T07:37:44.468Z,36.20
2019-01-28T07:38:44.592Z,35.00
2019-01-28T07:39:44.605Z,39.80
2019-01-28T07:40:44.678Z,38.50
2019-01-28T07:41:44.535Z,39.40
2019-01-28T07:42:44.659Z,36.30
2019-01-28T07:43:44.564Z,40.60
2019-01-28T07:44:44.579Z,38.80
2019-01-28T07:45:45.706Z,39.50
2019-01-28T07:46:44.691Z,37.90
2019-01-28T07:47:44.730Z,38.30
2019-01-28T07:48:44.646Z,38.40
2019-01-28T07:49:44.651Z,39.10
2019-01-28T07:50:44.665Z,39.30
2019-01-28T07:51:44.709Z,37.40
2019-01-28T07:52:44.810Z,34.20
2019-01-28T07:53:44.693Z,41.50
2019-01-28T07:54:44.946Z,37.20
2019-01-28T07:55:44.756Z,35.60
2019-01-28T07:56:44.770Z,38.40
2019-01-28T07:57:44.765Z,40.70
2019-01-28T07:58:44.794Z,36.30
2019-01-28T07:59:44.970Z,38.80
2019-01-28T08:00:44.943Z,34.70
2019-01-28T08:01:44.950Z,36.40
2019-01-28T08:02:44.843Z,41.20
2019-01-28T08:03:44.863Z,41.00
2019-01-28T08:04:44.947Z,43.70
2019-01-28T08:05:44.905Z,39.90
2019-01-28T08:06:44.962Z,37.90
2019-01-28T08:07:44.914Z,38.10
2019-01-28T08:08:45.058Z,40.10
2019-01-28T08:09:45.087Z,40.00
2019-01-28T08:10:45.098Z,44.00
2019-01-28T08:11:45.031Z,39.40
2019-01-28T08:12:45.017Z,43.80
2019-01-28T08:13:45.063Z,42.40
2019-01-28T08:14:45.017Z,40.10
2019-01-28T08:15:45.064Z,39.10
2019-01-28T08:16:45.102Z,39.20
2019-01-28T08:17:45.096Z,37.50
2019-01-28T08:18:45.104Z,38.90
2019-01-28T08:19:45.219Z,41.90
2019-01-28T08:20:45.121Z,39.60
2019-01-28T08:21:45.265Z,38.70
2019-01-28T08:22:45.137Z,34.50
2019-01-28T08:23:45.184Z,33.90
2019-01-28T08:24:45.357Z,35.20
2019-01-28T08:25:45.187Z,37.90
2019-01-28T08:26:45.205Z,39.80
2019-01-28T08:27:45.240Z,41.90
2019-01-28T08:28:45.253Z,36.60
2019-01-28T08:29:45.323Z,34.50
2019-01-28T08:30:45.289Z,35.50
2019-01-28T08:31:45.314Z,36.10
2019-01-28T08:32:45.427Z,42.00
2019-01-28T08:33:45.449Z,38.30
2019-01-28T08:34:45.438Z,39.60
2019-01-28T08:35:45.366Z,43.30
2019-01-28T08:36:45.401Z,51.00
2019-01-28T08:37:45.399Z,47.80
2019-01-28T08:38:45.525Z,47.10
2019-01-28T08:39:45.540Z,44.40
2019-01-28T08:40:45.502Z,48.90
2019-01-28T08:41:45.569Z,53.60
2019-01-28T08:42:45.486Z,50.60
2019-01-28T08:43:45.483Z,51.30
2019-01-28T08:44:45.497Z,53.50
2019-01-28T08:45:46.703Z,53.10
2019-01-28T08:46:45.647Z,54.60
2019-01-28T08:47:45.551Z,52.00
2019-01-28T08:48:45.565Z,51.40
2019-01-28T08:49:45.572Z,53.90
2019-01-28T08:50:45.736Z,53.70
2019-01-28T08:51:45.726Z,46.40
2019-01-28T08:52:45.627Z,51.20
2019-01-28T08:53:45.757Z,51.70
2019-01-28T08:54:45.773Z,50.60
2019-01-28T08:55:45.847Z,53.00
2019-01-28T08:56:45.804Z,54.30
2019-01-28T08:57:45.817Z,50.80
2019-01-28T08:58:45.737Z,45.30
2019-01-28T08:59:45.748Z,48.80
2019-01-28T09:00:45.857Z,52.70
2019-01-28T09:01:45.777Z,52.10
2019-01-28T09:02:45.895Z,49.50
2019-01-28T09:03:45.787Z,53.90
2019-01-28T09:04:45.814Z,50.90
2019-01-28T09:05:45.919Z,53.60
2019-01-28T09:06:45.963Z,51.40
2019-01-28T09:07:45.860Z,50.90
2019-01-28T09:08:45.886Z,49.70
2019-01-28T09:09:45.894Z,47.10
2019-01-28T09:10:46.014Z,42.80
2019-01-28T09:11:45.939Z,38.50
2019-01-28T09:12:47.199Z,39.00
2019-01-28T09:13:45.965Z,38.30
2019-01-28T09:14:45.985Z,33.30
2019-01-28T09:15:46.096Z,32.80
2019-01-28T09:16:46.004Z,29.40
2019-01-28T09:17:46.133Z,29.60
2019-01-28T09:18:46.044Z,26.60
2019-01-28T09:19:46.063Z,23.60
2019-01-28T09:20:46.183Z,22.20
2019-01-28T09:21:46.199Z,22.80
2019-01-28T09:22:46.120Z,24.00
2019-01-28T09:23:46.239Z,20.70
2019-01-28T09:24:46.143Z,21.30
2019-01-28T09:25:46.253Z,29.20
2019-01-28T09:26:46.300Z,24.00
2019-01-28T09:27:46.201Z,26.70
2019-01-28T09:28:46.220Z,25.80
2019-01-28T09:29:46.215Z,22.30
2019-01-28T09:30:46.372Z,31.70
2019-01-28T09:31:46.330Z,23.50
2019-01-28T09:32:46.400Z,23.50
2019-01-28T09:33:46.294Z,19.40
2019-01-28T09:34:46.337Z,19.60
2019-01-28T09:35:46.346Z,21.60
2019-01-28T09:36:46.433Z,22.10
2019-01-28T09:37:46.379Z,22.90
2019-01-28T09:38:46.391Z,24.80
2019-01-28T09:39:46.530Z,21.60
2019-01-28T09:40:46.424Z,25.40
2019-01-28T09:41:46.545Z,25.40
2019-01-28T09:42:46.589Z,21.50
2019-01-28T09:43:46.604Z,18.40
2019-01-28T09:44:46.625Z,19.70
2019-01-28T09:45:46.515Z,23.10
2019-01-28T09:46:46.815Z,19.30
2019-01-28T09:47:46.628Z,20.30
2019-01-28T09:48:46.597Z,23.20
2019-01-28T09:49:46.619Z,20.50
2019-01-28T09:50:46.627Z,23.60
2019-01-28T09:51:46.815Z,22.20
2019-01-28T09:52:46.666Z,22.50
2019-01-28T09:53:46.806Z,22.40
2019-01-28T09:54:46.701Z,19.80
2019-01-28T09:55:46.749Z,21.00
2019-01-28T09:56:46.850Z,21.10
2019-01-28T09:57:46.769Z,20.80
2019-01-28T09:58:46.915Z,27.50
2019-01-28T09:59:46.860Z,28.40
2019-01-28T10:00:46.946Z,22.20
2019-01-28T10:01:46.909Z,20.70
2019-01-28T10:02:46.926Z,21.40
2019-01-28T10:03:47.018Z,21.70
2019-01-28T10:04:46.933Z,20.70
2019-01-28T10:05:47.051Z,25.80
2019-01-28T10:06:47.142Z,19.00
2019-01-28T10:07:46.977Z,24.20
2019-01-28T10:08:47.118Z,26.50
2019-01-28T10:09:47.030Z,22.30
2019-01-28T10:10:47.169Z,21.80
2019-01-28T10:11:47.213Z,21.90
2019-01-28T10:12:47.095Z,28.40
2019-01-28T10:13:47.097Z,22.20
2019-01-28T10:14:47.111Z,25.90
2019-01-28T10:15:47.267Z,25.80
2019-01-28T10:16:47.333Z,28.40
2019-01-28T10:17:47.308Z,28.10
2019-01-28T10:18:47.213Z,26.00
2019-01-28T10:19:47.366Z,29.50
2019-01-28T10:20:47.270Z,28.90
2019-01-28T10:21:47.377Z,26.00
2019-01-28T10:22:47.314Z,32.40
2019-01-28T10:23:47.446Z,31.50
2019-01-28T10:24:47.468Z,26.40
2019-01-28T10:25:47.496Z,30.50
2019-01-28T10:26:47.612Z,29.50
2019-01-28T10:27:47.440Z,30.60
2019-01-28T10:28:47.463Z,30.70
2019-01-28T10:29:47.463Z,32.70
2019-01-28T10:30:47.506Z,27.80
2019-01-28T10:31:47.659Z,36.00
2019-01-28T10:32:47.545Z,32.90
2019-01-28T10:33:47.574Z,32.20
2019-01-28T10:34:47.582Z,30.40
2019-01-28T10:35:47.782Z,32.90
2019-01-28T10:36:47.805Z,30.90
2019-01-28T10:37:47.781Z,28.40
2019-01-28T10:38:47.801Z,29.20
2019-01-28T10:39:47.831Z,35.10
2019-01-28T10:40:47.756Z,33.30
2019-01-28T10:41:47.976Z,32.70
2019-01-28T10:42:47.777Z,27.30
2019-01-28T10:43:47.817Z,29.80
2019-01-28T10:44:47.949Z,31.50
2019-01-28T10:45:47.978Z,25.60
2019-01-28T10:46:48.047Z,28.30
2019-01-28T10:47:47.899Z,24.40
2019-01-28T10:48:49.730Z,24.80
2019-01-28T10:49:48.080Z,26.80
2019-01-28T10:50:47.992Z,26.00
2019-01-28T10:51:48.060Z,28.00
2019-01-28T10:52:48.034Z,28.40
2019-01-28T10:53:48.073Z,23.20
2019-01-28T10:54:48.200Z,27.20
2019-01-28T10:55:48.126Z,22.10
2019-01-28T10:56:48.253Z,24.80
2019-01-28T10:57:48.283Z,26.80
2019-01-28T10:58:48.306Z,23.90
2019-01-28T10:59:48.344Z,27.40
2019-01-28T11:00:48.250Z,26.80
2019-01-28T11:01:48.425Z,24.30
2019-01-28T11:02:48.423Z,24.00
2019-01-28T11:03:48.326Z,23.90
2019-01-28T11:04:48.345Z,21.50
2019-01-28T11:05:48.499Z,20.70
2019-01-28T11:06:48.421Z,23.10
2019-01-28T11:07:48.602Z,21.60
2019-01-28T11:08:48.463Z,21.10
2019-01-28T11:09:48.517Z,19.00
2019-01-28T11:10:48.587Z,20.10
2019-01-28T11:11:48.605Z,18.70
2019-01-28T11:12:48.792Z,18.30
2019-01-28T11:13:48.602Z,18.30
2019-01-28T11:14:48.749Z,19.30
2019-01-28T11:15:48.788Z,17.50
2019-01-28T11:16:48.698Z,18.00
2019-01-28T11:17:49.060Z,17.90
2019-01-28T11:18:48.917Z,17.00
2019-01-28T11:19:48.912Z,17.60
2019-01-28T11:20:48.876Z,17.30
2019-01-28T11:21:49.032Z,15.70
2019-01-28T11:22:49.141Z,17.00
2019-01-28T11:23:49.121Z,17.50
2019-01-28T11:24:48.925Z,17.60
2019-01-28T11:25:49.057Z,17.30
2019-01-28T11:26:49.014Z,17.80
2019-01-28T11:27:49.220Z,15.90
2019-01-28T11:28:49.137Z,13.40
2019-01-28T11:29:49.153Z,13.10
2019-01-28T11:30:49.251Z,14.90
2019-01-28T11:31:49.114Z,15.30
2019-01-28T11:32:49.231Z,15.70
2019-01-28T11:33:49.301Z,14.80
2019-01-28T11:34:49.411Z,14.40
2019-01-28T11:35:49.277Z,14.80
2019-01-28T11:36:49.375Z,15.60
2019-01-28T11:37:49.594Z,14.40
2019-01-28T11:38:49.448Z,14.70
2019-01-28T11:39:49.310Z,14.30
2019-01-28T11:40:49.385Z,14.20
2019-01-28T11:41:49.407Z,13.80
2019-01-28T11:42:49.487Z,14.20
2019-01-28T11:43:49.559Z,13.10
2019-01-28T11:44:49.603Z,12.70
2019-01-28T11:45:49.743Z,14.40
2019-01-28T11:46:49.662Z,13.10
2019-01-28T11:47:49.648Z,13.20
2019-01-28T11:48:49.581Z,13.80
2019-01-28T11:49:49.705Z,15.20
2019-01-28T11:50:55.847Z,12.60
2019-01-28T11:51:49.787Z,12.00
2019-01-28T11:52:49.792Z,11.90
2019-01-28T11:53:49.728Z,12.80
2019-01-28T11:54:49.740Z,13.00
2019-01-28T11:55:49.801Z,11.20
2019-01-28T11:56:49.818Z,11.70
2019-01-28T11:57:49.870Z,9.70
2019-01-28T11:58:49.908Z,10.50
2019-01-28T11:59:49.898Z,10.60
2019-01-28T12:00:49.922Z,9.40
2019-01-28T12:01:50.216Z,11.50
2019-01-28T12:02:50.054Z,9.90
2019-01-28T12:03:49.996Z,10.50
2019-01-28T12:04:50.157Z,11.90
2019-01-28T12:05:50.095Z,9.20
2019-01-28T12:06:50.183Z,8.70
2019-01-28T12:07:50.128Z,8.60
2019-01-28T12:08:50.173Z,9.10
2019-01-28T12:09:50.167Z,8.50
2019-01-28T12:10:50.323Z,9.10
2019-01-28T12:11:50.343Z,7.10
2019-01-28T12:12:50.260Z,8.80
2019-01-28T12:13:50.301Z,7.50
2019-01-28T12:14:50.333Z,6.80
2019-01-28T12:15:50.370Z,7.70
2019-01-28T12:16:50.573Z,5.90
2019-01-28T12:17:50.424Z,6.50
2019-01-28T12:18:50.452Z,9.10
2019-01-28T12:19:50.520Z,6.80
2019-01-28T12:20:53.640Z,6.10
2019-01-28T12:21:50.744Z,7.60
2019-01-28T12:22:50.551Z,6.90
2019-01-28T12:23:50.702Z,6.60
2019-01-28T12:24:50.639Z,7.10
2019-01-28T12:25:50.762Z,4.50
2019-01-28T12:26:50.797Z,5.50
2019-01-28T12:27:50.701Z,5.60
2019-01-28T12:28:50.717Z,6.40
2019-01-28T12:29:50.762Z,7.20
2019-01-28T12:30:50.908Z,7.40
2019-01-28T12:31:50.915Z,5.40
2019-01-28T12:32:50.974Z,5.00
2019-01-28T12:33:50.883Z,7.30
2019-01-28T12:34:50.917Z,4.30
2019-01-28T12:35:51.056Z,6.10
2019-01-28T12:36:51.024Z,4.30
2019-01-28T12:37:51.111Z,5.20
2019-01-28T12:38:51.243Z,4.00
2019-01-28T12:39:51.036Z,4.30
2019-01-28T12:40:51.196Z,5.40
2019-01-28T12:41:51.091Z,4.30
2019-01-28T12:42:52.581Z,4.20
2019-01-28T12:43:51.266Z,4.30
2019-01-28T12:44:51.323Z,4.30
2019-01-28T12:45:51.237Z,5.60
2019-01-28T12:46:51.256Z,4.30
2019-01-28T12:47:51.401Z,5.20
2019-01-28T12:48:51.424Z,6.60
2019-01-28T12:49:51.327Z,3.80
2019-01-28T12:50:51.500Z,3.60
2019-01-28T12:51:51.419Z,5.50
2019-01-28T12:52:51.439Z,3.70
2019-01-28T12:53:51.582Z,4.60
2019-01-28T12:54:51.617Z,4.60